Suntree, Florida
Current Conditions -  °F | °C
As of 9:53 AM on Saturday 25 Oct 2014 (Local Time) from KMLB Reporting Station
Clear Clear  
Wind Chill: 73°   Ceiling: Unl
Heat Index: 73°   Visibility: 10mi
Dew Point: 59°   Wind: 12mph
Humidity: 61%   Direction: 330°NNW
Pressure: 29.97"   Gusts: NA
Location:  28.1311°N, 80.6548°W
Report Text: KMLB 251353Z 33010KT 10SM CLR 23/15 A2997 RMK AO2 SLP147 T02280150
Loading
Personal Weather Stations






























Interactive Weather Map
Tropical Storm Tracking
New forecast layout! Learn more

10-Day Weather Forecast

Advertisements
Track Severe Weather on mobile